Terminal Aerodrome Forecast
Issued by NWS

Home | Current Version | Previous Version | Text Only | Print | Product List | Glossary On
Versions: 1 2 3 4 5 6 7 8 9 10 11 12 13 14 15 16 17 18 19 20 21
000
FTUS42 KMLB 012300
TAFLEE
TAF
KLEE 012330Z 0200/0224 04005KT P6SM SCT080 BKN100
     FM020400 05003KT P6SM FEW030 BKN060
     FM021400 03005KT P6SM SCT060 BKN120
     FM022000 07007KT P6SM SCT120 BKN250=

USA.gov is the U.S. government's official web portal to all federal, state and local government web resources and services.